Time;durP1;ratioP1;P1;durP2;ratioP2;P2;SDS_P1;SDS_P2;PMS_P1;PMS_P2;Temp;Humidity;BMP_temperature;BMP_pressure;BME280_temperature;BME280_humidity;BME280_pressure;Samples;Min_cycle;Max_cycle;Signal;HPM_P1;HPM_P2
2023/09/08 00:02:18;;;;;;;2.97;2.47;;;20.10;98.00;;;;;;5070610;28;20040;-73
2023/09/08 00:04:44;;;;;;;4.30;2.38;;;20.00;98.20;;;;;;5071337;28;20035;-74
2023/09/08 00:07:11;;;;;;;2.90;1.75;;;20.00;98.50;;;;;;5054650;28;20050;-73
2023/09/08 00:09:37;;;;;;;2.33;1.75;;;20.00;98.30;;;;;;5072785;28;20035;-78
2023/09/08 00:12:04;;;;;;;2.42;2.22;;;20.00;98.30;;;;;;5071144;28;20032;-77
2023/09/08 00:14:30;;;;;;;3.67;2.65;;;20.00;98.40;;;;;;5071192;28;20036;-80
2023/09/08 00:16:57;;;;;;;3.63;2.88;;;20.00;98.50;;;;;;5072038;28;20047;-81
2023/09/08 00:19:23;;;;;;;3.10;2.15;;;20.00;98.50;;;;;;5072078;28;20071;-81
2023/09/08 00:21:50;;;;;;;2.85;2.45;;;19.90;98.50;;;;;;5074570;28;20024;-78
2023/09/08 00:24:17;;;;;;;3.10;2.67;;;19.90;98.60;;;;;;5098956;28;20032;-78
2023/09/08 00:26:44;;;;;;;3.20;2.60;;;19.90;98.60;;;;;;5092212;28;20039;-78
2023/09/08 00:29:10;;;;;;;5.15;2.28;;;19.90;98.70;;;;;;5081339;27;20043;-74
2023/09/08 00:31:37;;;;;;;3.15;2.75;;;19.80;98.80;;;;;;5074006;28;20374;-73
2023/09/08 00:34:03;;;;;;;3.17;2.13;;;19.70;98.90;;;;;;5090013;28;20521;-74
2023/09/08 00:36:30;;;;;;;3.42;3.00;;;19.70;99.00;;;;;;5108464;28;20039;-74
2023/09/08 00:38:56;;;;;;;3.10;2.10;;;19.70;99.10;;;;;;5109009;28;20042;-75
2023/09/08 00:41:23;;;;;;;3.10;2.28;;;19.60;99.20;;;;;;5070136;28;20040;-74
2023/09/08 00:43:50;;;;;;;2.30;2.10;;;19.60;99.30;;;;;;5094122;28;20035;-75
2023/09/08 00:46:17;;;;;;;3.22;2.22;;;19.60;99.40;;;;;;5090025;28;20035;-75
2023/09/08 00:48:43;;;;;;;3.63;2.10;;;19.50;99.50;;;;;;5083649;28;20431;-74
2023/09/08 00:51:10;;;;;;;2.72;2.05;;;19.50;99.60;;;;;;5090352;28;20039;-74
2023/09/08 00:53:37;;;;;;;3.00;2.17;;;19.40;99.70;;;;;;5092782;28;20031;-74
2023/09/08 00:56:04;;;;;;;2.28;2.00;;;19.40;99.80;;;;;;5112442;28;20046;-74
2023/09/08 00:58:31;;;;;;;2.50;2.13;;;19.40;99.90;;;;;;5112464;28;20031;-74
2023/09/08 01:00:57;;;;;;;2.25;2.05;;;19.30;99.90;;;;;;5092530;28;20028;-75
2023/09/08 01:03:27;;;;;;;3.22;1.95;;;19.30;99.90;;;;;;5093147;28;20046;-73
2023/09/08 01:05:55;;;;;;;3.03;1.98;;;19.20;99.90;;;;;;5101673;28;20044;-72
2023/09/08 01:08:21;;;;;;;3.00;2.35;;;19.20;99.90;;;;;;5076852;28;20039;-75
2023/09/08 01:10:48;;;;;;;3.03;2.50;;;19.20;99.90;;;;;;5094445;28;20043;-75
2023/09/08 01:13:14;;;;;;;2.92;2.40;;;19.10;99.90;;;;;;5096934;28;20038;-75
2023/09/08 01:15:41;;;;;;;3.42;2.47;;;19.10;99.90;;;;;;5073391;28;20039;-75
2023/09/08 01:18:07;;;;;;;2.30;2.05;;;19.10;99.90;;;;;;5076863;28;20042;-75
2023/09/08 01:21:00;;;;;;;2.22;1.95;;;19.10;99.90;;;;;;5093870;28;20049;-74
2023/09/08 01:23:51;;;;;;;3.63;1.95;;;19.10;99.90;;;;;;5081675;28;20520;-74
2023/09/08 01:26:21;;;;;;;2.28;1.98;;;19.00;99.90;;;;;;5093249;28;20031;-74
2023/09/08 01:28:50;;;;;;;2.70;2.38;;;19.00;99.90;;;;;;5093008;27;20039;-75
2023/09/08 01:31:18;;;;;;;2.20;1.92;;;19.00;99.90;;;;;;5088176;28;20031;-74
2023/09/08 01:33:45;;;;;;;2.40;1.83;;;18.90;99.90;;;;;;5053917;28;20066;-74
2023/09/08 01:36:12;;;;;;;3.83;2.20;;;18.90;99.90;;;;;;5092508;28;20039;-74
2023/09/08 01:38:39;;;;;;;3.13;2.05;;;18.90;99.90;;;;;;5103393;28;20036;-73
2023/09/08 01:41:05;;;;;;;2.75;2.40;;;18.90;99.90;;;;;;5076000;28;20027;-73
2023/09/08 01:43:31;;;;;;;2.80;2.30;;;18.80;99.90;;;;;;5090088;28;20042;-75
2023/09/08 01:45:58;;;;;;;2.53;2.13;;;18.80;99.90;;;;;;5109188;28;20035;-75
2023/09/08 01:48:24;;;;;;;2.30;1.85;;;18.70;99.90;;;;;;5080484;28;20051;-74
2023/09/08 01:50:50;;;;;;;4.10;2.45;;;18.70;99.90;;;;;;5090750;28;20035;-74
2023/09/08 01:53:17;;;;;;;2.30;1.77;;;18.70;99.90;;;;;;5080465;28;20379;-73
2023/09/08 01:55:43;;;;;;;3.15;2.80;;;18.70;99.90;;;;;;5092522;28;20039;-75
2023/09/08 01:58:09;;;;;;;3.45;2.33;;;18.70;99.90;;;;;;5093237;28;20036;-74
2023/09/08 02:00:36;;;;;;;2.80;2.50;;;18.60;99.90;;;;;;5076229;28;20031;-74
2023/09/08 02:03:03;;;;;;;2.90;2.60;;;18.50;99.90;;;;;;5112124;28;20401;-75
2023/09/08 02:05:29;;;;;;;3.10;2.42;;;18.50;99.90;;;;;;5074950;28;20382;-73
2023/09/08 02:07:56;;;;;;;2.45;2.17;;;18.50;99.90;;;;;;5093353;28;20823;-74
2023/09/08 02:10:23;;;;;;;3.17;2.00;;;18.50;99.90;;;;;;5083385;28;20035;-73
2023/09/08 02:12:49;;;;;;;3.95;2.45;;;18.50;99.90;;;;;;5060407;27;20027;-74
2023/09/08 02:15:17;;;;;;;3.25;2.72;;;18.40;99.90;;;;;;5080709;28;20036;-74
2023/09/08 02:17:43;;;;;;;3.22;2.33;;;18.40;99.90;;;;;;5056559;28;20039;-71
2023/09/08 02:20:10;;;;;;;2.45;2.05;;;18.40;99.90;;;;;;5076112;28;20020;-74
2023/09/08 02:22:36;;;;;;;2.72;2.38;;;18.40;99.90;;;;;;5110798;28;20527;-74
2023/09/08 02:25:04;;;;;;;3.97;2.80;;;18.40;99.90;;;;;;5075677;28;20039;-74
2023/09/08 02:27:30;;;;;;;3.10;2.65;;;18.40;99.90;;;;;;5071530;28;20059;-75
2023/09/08 02:29:57;;;;;;;2.50;2.25;;;18.30;99.90;;;;;;5096453;28;20042;-75
2023/09/08 02:32:24;;;;;;;3.00;2.70;;;18.30;99.90;;;;;;5111305;28;20411;-75
2023/09/08 02:34:52;;;;;;;2.85;2.35;;;18.30;99.90;;;;;;5075201;28;20387;-75
2023/09/08 02:37:19;;;;;;;2.83;2.50;;;18.30;99.90;;;;;;5111096;28;20024;-75
2023/09/08 02:39:46;;;;;;;3.00;2.70;;;18.20;99.90;;;;;;5092673;28;20040;-75
2023/09/08 02:42:13;;;;;;;2.85;2.42;;;18.20;99.90;;;;;;5058031;28;20518;-75
2023/09/08 02:44:39;;;;;;;3.80;3.08;;;18.20;99.90;;;;;;5077379;28;20043;-75
2023/09/08 02:47:06;;;;;;;4.28;2.40;;;18.20;99.90;;;;;;5097747;28;20046;-74
2023/09/08 02:49:34;;;;;;;2.88;2.58;;;18.10;99.90;;;;;;5075727;28;20493;-75
2023/09/08 02:52:00;;;;;;;3.10;2.58;;;18.20;99.90;;;;;;5074697;28;20028;-72
2023/09/08 02:54:26;;;;;;;3.15;2.20;;;18.10;99.90;;;;;;5060859;28;20437;-74
2023/09/08 02:56:53;;;;;;;3.33;2.85;;;18.10;99.90;;;;;;5092063;28;20493;-75
2023/09/08 02:59:19;;;;;;;3.38;2.80;;;18.10;99.90;;;;;;5092323;28;20035;-74
2023/09/08 03:01:45;;;;;;;2.75;2.47;;;18.10;99.90;;;;;;5110265;28;20040;-75
2023/09/08 03:04:12;;;;;;;3.22;2.50;;;18.10;99.90;;;;;;5089555;28;20074;-74
2023/09/08 03:06:38;;;;;;;3.67;2.47;;;18.10;99.90;;;;;;5091940;28;20028;-74
2023/09/08 03:09:05;;;;;;;2.90;2.25;;;18.10;99.90;;;;;;5094154;28;20055;-75
2023/09/08 03:11:31;;;;;;;2.85;2.55;;;18.10;99.90;;;;;;5071045;28;20348;-75
2023/09/08 03:13:57;;;;;;;4.10;2.83;;;18.10;99.90;;;;;;5095099;28;20035;-74
2023/09/08 03:16:24;;;;;;;3.47;2.80;;;18.10;99.90;;;;;;5092443;28;20039;-75
2023/09/08 03:18:51;;;;;;;2.95;2.65;;;18.10;99.90;;;;;;5074477;28;20058;-73
2023/09/08 03:21:18;;;;;;;4.13;3.38;;;18.10;99.90;;;;;;5075213;28;20042;-74
2023/09/08 03:23:45;;;;;;;2.60;2.40;;;18.10;99.90;;;;;;5091195;28;20398;-74
2023/09/08 03:26:11;;;;;;;2.85;2.47;;;18.00;99.90;;;;;;5057565;28;20023;-74
2023/09/08 03:28:39;;;;;;;3.35;2.97;;;18.00;99.90;;;;;;5057397;27;20035;-74
2023/09/08 03:31:06;;;;;;;5.43;3.30;;;18.00;99.90;;;;;;5061717;28;20027;-74
2023/09/08 03:33:34;;;;;;;4.25;3.17;;;18.00;99.90;;;;;;5081900;28;20039;-73
2023/09/08 03:36:02;;;;;;;3.50;2.75;;;18.00;99.90;;;;;;5071443;28;20035;-75
2023/09/08 03:38:29;;;;;;;4.10;3.55;;;18.00;99.90;;;;;;5054616;28;20040;-74
2023/09/08 03:40:56;;;;;;;3.60;2.35;;;18.00;99.90;;;;;;5085447;28;20032;-74
2023/09/08 03:43:22;;;;;;;3.78;2.78;;;17.90;99.90;;;;;;5083190;28;20031;-72
2023/09/08 03:45:49;;;;;;;3.45;3.13;;;17.90;99.90;;;;;;5090833;28;20078;-74
2023/09/08 03:48:15;;;;;;;4.00;3.05;;;17.90;99.90;;;;;;5105501;28;20035;-74
2023/09/08 03:50:45;;;;;;;4.30;2.85;;;17.90;99.90;;;;;;5072048;28;20368;-74
2023/09/08 03:53:12;;;;;;;3.78;2.78;;;17.90;99.90;;;;;;5056021;28;20039;-74
2023/09/08 03:55:39;;;;;;;3.70;3.35;;;17.90;99.90;;;;;;5073541;28;20032;-74
2023/09/08 03:58:05;;;;;;;3.35;2.78;;;17.90;99.90;;;;;;5069272;28;20042;-74
2023/09/08 04:00:31;;;;;;;5.18;3.03;;;17.90;99.90;;;;;;5073861;28;20039;-74
2023/09/08 04:02:58;;;;;;;4.35;3.08;;;17.80;99.90;;;;;;5079258;28;20042;-73
2023/09/08 04:05:24;;;;;;;3.75;2.80;;;17.80;99.90;;;;;;5108330;28;20035;-73
2023/09/08 04:07:51;;;;;;;3.55;2.72;;;17.80;99.90;;;;;;5074197;28;20031;-74
2023/09/08 04:10:18;;;;;;;3.03;2.67;;;17.80;99.90;;;;;;5074079;28;20027;-73
2023/09/08 04:12:44;;;;;;;3.95;3.13;;;17.80;99.90;;;;;;5093332;27;20039;-74
2023/09/08 04:15:11;;;;;;;3.42;2.95;;;17.80;99.90;;;;;;5073234;28;20027;-73
2023/09/08 04:17:37;;;;;;;4.15;2.80;;;17.80;99.90;;;;;;5073762;28;20043;-74
2023/09/08 04:20:05;;;;;;;3.08;2.78;;;17.70;99.90;;;;;;5074153;28;20031;-73
2023/09/08 04:22:32;;;;;;;4.00;2.85;;;17.70;99.90;;;;;;5073557;28;20039;-74
2023/09/08 04:24:59;;;;;;;3.22;2.72;;;17.70;99.90;;;;;;5072998;28;20036;-75
2023/09/08 04:27:25;;;;;;;4.13;3.67;;;17.70;99.90;;;;;;5073389;28;20031;-74
2023/09/08 04:29:52;;;;;;;3.30;2.97;;;17.70;99.90;;;;;;5078467;28;20035;-75
2023/09/08 04:32:18;;;;;;;3.63;3.33;;;17.60;99.90;;;;;;5090321;28;20024;-74
2023/09/08 04:34:45;;;;;;;3.80;3.42;;;17.60;99.90;;;;;;5072864;28;20066;-73
2023/09/08 04:37:11;;;;;;;3.75;3.40;;;17.60;99.90;;;;;;5076391;28;20035;-74
2023/09/08 04:39:38;;;;;;;3.33;2.92;;;17.60;99.90;;;;;;5074312;28;20032;-74
2023/09/08 04:42:05;;;;;;;3.63;3.00;;;17.60;99.90;;;;;;5061530;28;20035;-74
2023/09/08 04:44:32;;;;;;;4.03;3.05;;;17.60;99.90;;;;;;5074471;28;20387;-74
2023/09/08 04:46:59;;;;;;;5.20;3.50;;;17.60;99.90;;;;;;5060428;28;20043;-75
2023/09/08 04:49:25;;;;;;;3.67;3.35;;;17.50;99.90;;;;;;5073417;28;20553;-74
2023/09/08 04:51:53;;;;;;;3.13;2.78;;;17.50;99.90;;;;;;5090775;28;20036;-74
2023/09/08 04:54:20;;;;;;;4.40;3.85;;;17.50;99.90;;;;;;5070634;28;20032;-74
2023/09/08 04:56:48;;;;;;;4.43;3.75;;;17.50;99.90;;;;;;5088818;28;20032;-74
2023/09/08 04:59:14;;;;;;;4.80;3.80;;;17.50;99.90;;;;;;5073517;28;20404;-75
2023/09/08 05:01:41;;;;;;;5.57;4.25;;;17.50;99.90;;;;;;5071496;28;20032;-75
2023/09/08 05:04:08;;;;;;;5.25;4.50;;;17.50;99.90;;;;;;5083783;28;20031;-74
2023/09/08 05:06:34;;;;;;;4.07;3.53;;;17.40;99.90;;;;;;5074091;28;20044;-74
2023/09/08 05:09:01;;;;;;;3.83;3.40;;;17.40;99.90;;;;;;5059213;28;20043;-73
2023/09/08 05:11:29;;;;;;;3.92;3.55;;;17.40;99.90;;;;;;5056135;28;20036;-73
2023/09/08 05:13:57;;;;;;;4.18;3.50;;;17.40;99.90;;;;;;5072841;28;20047;-73
2023/09/08 05:16:39;;;;;;;4.05;3.65;;;17.40;99.90;;;;;;5073405;28;20596;-74
2023/09/08 05:19:07;;;;;;;4.88;4.38;;;17.40;99.90;;;;;;5070551;28;20036;-74
2023/09/08 05:21:36;;;;;;;4.20;3.80;;;17.40;99.90;;;;;;5071870;28;20513;-73
2023/09/08 05:24:04;;;;;;;4.32;3.83;;;17.40;99.90;;;;;;5078460;28;20491;-74
2023/09/08 05:26:32;;;;;;;5.70;4.10;;;17.50;99.90;;;;;;5070527;28;20379;-74
2023/09/08 05:28:58;;;;;;;5.68;4.28;;;17.50;99.90;;;;;;5080646;28;20043;-74
2023/09/08 05:31:26;;;;;;;4.85;4.38;;;17.50;99.90;;;;;;5090651;28;20023;-74
2023/09/08 05:33:52;;;;;;;4.28;3.83;;;17.50;99.90;;;;;;5086337;28;20036;-74
2023/09/08 05:36:19;;;;;;;4.57;3.67;;;17.50;99.90;;;;;;5096015;28;20440;-74
2023/09/08 05:38:46;;;;;;;7.05;4.68;;;17.60;99.90;;;;;;5089800;28;20043;-72
2023/09/08 05:41:12;;;;;;;6.38;5.05;;;17.60;99.90;;;;;;5076025;28;20032;-74
2023/09/08 05:43:39;;;;;;;4.35;3.92;;;17.60;99.90;;;;;;5065027;28;20035;-74
2023/09/08 05:46:05;;;;;;;5.22;4.20;;;17.70;99.90;;;;;;5055995;28;20028;-75
2023/09/08 05:48:32;;;;;;;5.07;4.53;;;17.70;99.90;;;;;;5075940;28;20040;-74
2023/09/08 05:50:59;;;;;;;4.72;4.28;;;17.80;99.90;;;;;;5088770;28;20039;-73
2023/09/08 05:53:26;;;;;;;7.93;4.78;;;17.80;99.90;;;;;;5076718;28;20504;-71
2023/09/08 05:55:53;;;;;;;6.75;4.40;;;17.90;99.90;;;;;;5075935;28;20028;-74
2023/09/08 05:58:20;;;;;;;5.55;5.03;;;17.90;99.90;;;;;;5067532;28;20040;-73
2023/09/08 06:00:46;;;;;;;4.88;4.35;;;18.00;99.90;;;;;;5072718;28;20042;-73
2023/09/08 06:03:13;;;;;;;5.53;4.22;;;18.10;99.90;;;;;;5054341;28;20512;-75
2023/09/08 06:05:40;;;;;;;7.05;5.15;;;18.30;99.90;;;;;;5075868;28;20042;-75
2023/09/08 06:08:06;;;;;;;7.40;5.63;;;18.40;99.90;;;;;;5057287;28;20043;-77
2023/09/08 06:10:34;;;;;;;5.03;4.53;;;18.60;99.90;;;;;;5075778;28;20035;-75
2023/09/08 06:13:01;;;;;;;5.00;4.32;;;18.80;99.90;;;;;;5096857;27;20035;-74
2023/09/08 06:15:27;;;;;;;6.43;4.95;;;19.00;99.90;;;;;;5092650;28;20376;-74
2023/09/08 06:17:54;;;;;;;4.80;4.35;;;19.10;99.90;;;;;;5093459;28;20036;-75
2023/09/08 06:20:21;;;;;;;6.82;4.80;;;19.40;99.90;;;;;;5090292;28;20039;-73
2023/09/08 06:22:49;;;;;;;5.07;4.57;;;19.50;99.90;;;;;;5069449;28;20036;-74
2023/09/08 06:25:16;;;;;;;7.63;6.78;;;19.60;99.90;;;;;;5092078;28;20024;-75
2023/09/08 06:27:43;;;;;;;9.60;8.05;;;19.80;99.90;;;;;;5075062;28;20570;-75
2023/09/08 06:30:10;;;;;;;7.97;7.00;;;19.90;99.90;;;;;;5059593;28;20540;-75
2023/09/08 06:32:36;;;;;;;8.77;7.65;;;20.00;99.90;;;;;;5093077;28;20044;-74
2023/09/08 06:35:03;;;;;;;7.05;6.43;;;20.20;99.90;;;;;;5090378;28;20027;-75
2023/09/08 06:37:35;;;;;;;6.50;5.90;;;20.30;99.90;;;;;;5072262;28;20040;-74
2023/09/08 06:40:02;;;;;;;5.97;4.85;;;20.40;99.90;;;;;;5092825;28;20035;-73
2023/09/08 06:42:29;;;;;;;6.22;5.63;;;20.50;99.90;;;;;;5092531;28;20040;-75
2023/09/08 06:45:07;;;;;;;6.32;5.60;;;20.70;99.90;;;;;;5092074;28;20046;-74
2023/09/08 06:47:33;;;;;;;6.90;5.75;;;20.70;99.90;;;;;;5110415;28;20035;-74
2023/09/08 06:50:00;;;;;;;7.40;6.25;;;20.80;99.90;;;;;;5058549;28;20043;-74
2023/09/08 06:52:26;;;;;;;6.35;4.85;;;20.90;99.90;;;;;;5092363;28;20023;-75
2023/09/08 06:54:53;;;;;;;6.97;6.15;;;21.00;99.90;;;;;;5091664;28;20042;-74
2023/09/08 06:57:19;;;;;;;6.35;5.32;;;21.10;99.90;;;;;;5065218;28;20031;-74
2023/09/08 06:59:46;;;;;;;6.72;6.03;;;21.30;99.90;;;;;;5068361;28;20032;-75
2023/09/08 07:02:12;;;;;;;7.43;5.82;;;21.30;99.90;;;;;;5092207;28;20031;-74
2023/09/08 07:04:39;;;;;;;7.15;6.45;;;21.40;99.90;;;;;;5070230;28;20040;-74
2023/09/08 07:07:07;;;;;;;6.18;5.43;;;21.50;99.90;;;;;;5064934;28;20031;-75
2023/09/08 07:09:38;;;;;;;6.47;5.32;;;21.60;99.90;;;;;;5057265;28;20055;-74
2023/09/08 07:12:08;;;;;;;6.22;5.10;;;21.70;99.90;;;;;;5073515;28;20035;-74
2023/09/08 07:14:36;;;;;;;6.72;6.03;;;21.80;99.90;;;;;;5057954;28;20051;-76
2023/09/08 07:17:02;;;;;;;6.30;5.03;;;21.90;99.90;;;;;;5075570;28;20027;-75
2023/09/08 07:19:29;;;;;;;6.20;5.57;;;22.00;99.90;;;;;;5058742;28;20047;-75
2023/09/08 07:21:56;;;;;;;4.85;4.45;;;22.10;99.90;;;;;;5055248;28;20048;-75
2023/09/08 07:24:23;;;;;;;6.28;4.28;;;22.20;99.90;;;;;;5072678;28;20493;-73
2023/09/08 07:26:51;;;;;;;7.57;5.88;;;22.30;99.90;;;;;;5073914;28;20044;-76
2023/09/08 07:29:17;;;;;;;5.45;4.95;;;22.40;99.90;;;;;;5078275;28;20038;-76
2023/09/08 07:31:44;;;;;;;5.43;4.70;;;22.60;99.90;;;;;;5092342;28;20457;-74
2023/09/08 07:34:10;;;;;;;5.70;5.13;;;22.70;99.90;;;;;;5091348;28;20019;-75
2023/09/08 07:36:37;;;;;;;3.75;3.45;;;22.90;99.90;;;;;;5071267;28;20040;-75
2023/09/08 07:39:04;;;;;;;5.35;4.53;;;22.90;99.90;;;;;;5093063;28;20031;-76
2023/09/08 07:41:30;;;;;;;5.55;5.00;;;23.00;99.90;;;;;;5098224;27;20042;-75
2023/09/08 07:43:56;;;;;;;6.32;4.80;;;23.00;99.90;;;;;;5056717;28;20036;-74
2023/09/08 07:46:25;;;;;;;5.20;4.57;;;23.10;99.90;;;;;;5088882;28;20046;-74
2023/09/08 07:48:52;;;;;;;7.13;5.78;;;23.20;99.90;;;;;;5109513;28;20019;-76
2023/09/08 07:51:19;;;;;;;5.30;4.80;;;23.30;99.90;;;;;;5075022;28;20039;-76
2023/09/08 07:53:45;;;;;;;6.68;5.88;;;23.40;99.90;;;;;;5112483;27;20027;-75
2023/09/08 07:56:11;;;;;;;6.20;5.60;;;23.50;99.90;;;;;;5116785;27;20043;-74
2023/09/08 07:58:39;;;;;;;4.88;4.20;;;23.50;99.90;;;;;;5108563;28;20028;-75
2023/09/08 08:01:06;;;;;;;4.78;4.30;;;23.60;99.90;;;;;;5110210;28;20050;-74
2023/09/08 08:03:34;;;;;;;5.15;4.65;;;23.80;99.90;;;;;;5073631;28;20114;-75
2023/09/08 08:06:01;;;;;;;5.55;4.95;;;23.90;99.90;;;;;;5057606;28;20035;-75
2023/09/08 08:08:27;;;;;;;5.72;5.07;;;24.00;99.90;;;;;;5091423;28;20042;-75
2023/09/08 08:10:53;;;;;;;6.20;5.35;;;24.10;99.90;;;;;;5091533;28;20417;-75
2023/09/08 08:13:20;;;;;;;5.30;4.80;;;24.20;99.90;;;;;;5077682;28;20030;-75
2023/09/08 08:15:47;;;;;;;5.20;4.75;;;24.30;99.90;;;;;;5076325;28;20082;-75
2023/09/08 08:18:13;;;;;;;4.82;4.38;;;24.40;99.90;;;;;;5091185;28;20031;-74
2023/09/08 08:20:40;;;;;;;4.68;4.28;;;24.60;99.90;;;;;;5109697;28;20032;-75
2023/09/08 08:23:08;;;;;;;5.32;4.43;;;24.70;99.90;;;;;;5074570;28;20067;-74
2023/09/08 08:25:34;;;;;;;6.32;5.72;;;24.80;99.90;;;;;;5073152;28;20032;-75
2023/09/08 08:28:01;;;;;;;6.55;4.72;;;24.90;99.90;;;;;;5076765;28;20031;-75
2023/09/08 08:30:27;;;;;;;6.30;5.32;;;25.00;99.90;;;;;;5078039;28;20047;-75
2023/09/08 08:32:54;;;;;;;6.32;4.45;;;25.10;99.90;;;;;;5090309;28;20040;-75
2023/09/08 08:35:20;;;;;;;4.97;4.55;;;25.20;99.90;;;;;;5073974;28;20035;-75
2023/09/08 08:37:47;;;;;;;3.75;3.45;;;25.30;99.90;;;;;;5090588;28;20097;-75
2023/09/08 08:40:13;;;;;;;5.95;4.13;;;25.30;99.90;;;;;;5072606;28;20501;-74
2023/09/08 08:42:41;;;;;;;4.53;4.13;;;25.40;99.90;;;;;;5062996;28;20497;-74
2023/09/08 08:45:08;;;;;;;5.10;4.68;;;25.60;99.90;;;;;;5057959;28;20040;-74
2023/09/08 08:47:35;;;;;;;4.70;4.28;;;25.70;99.90;;;;;;5066788;28;20035;-73
2023/09/08 08:50:03;;;;;;;6.30;5.15;;;25.80;99.90;;;;;;5057865;28;20427;-75
2023/09/08 08:52:29;;;;;;;5.75;5.30;;;25.80;99.90;;;;;;5076916;28;20031;-74
2023/09/08 08:54:56;;;;;;;5.10;4.68;;;25.90;99.90;;;;;;5067085;28;20437;-74
2023/09/08 08:57:23;;;;;;;5.68;5.18;;;25.90;99.90;;;;;;5063829;28;20478;-71
2023/09/08 08:59:51;;;;;;;6.10;5.22;;;26.00;99.90;;;;;;5082119;28;20439;-75
2023/09/08 09:02:18;;;;;;;6.45;5.68;;;26.10;99.80;;;;;;5070111;28;20059;-75
2023/09/08 09:04:46;;;;;;;6.88;5.97;;;26.20;99.60;;;;;;5083568;28;20487;-75
2023/09/08 09:07:12;;;;;;;4.75;4.35;;;26.30;99.60;;;;;;5073414;28;20024;-75
2023/09/08 09:09:40;;;;;;;5.90;4.70;;;26.40;99.40;;;;;;5072403;28;20046;-75
2023/09/08 09:12:06;;;;;;;4.72;4.30;;;26.50;99.30;;;;;;5107895;28;20043;-73
2023/09/08 09:14:34;;;;;;;5.90;5.40;;;26.60;99.30;;;;;;5081008;28;20047;-73
2023/09/08 09:17:04;;;;;;;5.90;4.18;;;26.80;99.20;;;;;;5071621;28;20063;-75
2023/09/08 09:19:31;;;;;;;4.50;3.63;;;26.80;99.00;;;;;;5098847;28;20058;-74
2023/09/08 09:21:59;;;;;;;4.78;3.83;;;27.00;99.00;;;;;;5069263;28;20042;-74
2023/09/08 09:24:31;;;;;;;4.40;3.97;;;27.10;98.90;;;;;;5085546;28;20040;-73
2023/09/08 09:26:58;;;;;;;5.15;4.38;;;27.20;98.70;;;;;;5109732;27;20505;-75
2023/09/08 09:29:25;;;;;;;3.92;3.22;;;27.30;98.60;;;;;;5089932;28;20401;-74
2023/09/08 09:32:03;;;;;;;3.97;3.67;;;27.50;98.60;;;;;;5088039;28;20035;-76
2023/09/08 09:34:30;;;;;;;4.07;3.67;;;27.60;98.60;;;;;;5075832;28;20047;-75
2023/09/08 09:36:56;;;;;;;3.50;3.20;;;27.80;98.40;;;;;;5073343;28;20047;-75
2023/09/08 09:39:25;;;;;;;5.03;4.18;;;27.90;98.30;;;;;;5111509;28;20367;-75
2023/09/08 09:41:57;;;;;;;5.07;4.53;;;28.10;98.10;;;;;;5096076;27;20038;-74
2023/09/08 09:44:24;;;;;;;3.75;3.33;;;28.20;98.00;;;;;;5085002;28;20032;-76
2023/09/08 09:46:54;;;;;;;4.45;4.05;;;28.30;97.70;;;;;;5111596;28;20505;-78
2023/09/08 09:49:20;;;;;;;5.82;5.32;;;28.30;97.60;;;;;;5059944;28;20046;-78
2023/09/08 09:51:50;;;;;;;5.32;4.22;;;28.40;97.30;;;;;;5058416;28;20399;-74
2023/09/08 09:54:17;;;;;;;4.60;4.15;;;28.50;97.20;;;;;;5076027;28;20035;-71
2023/09/08 09:56:44;;;;;;;3.13;2.83;;;28.50;97.20;;;;;;5112056;28;20035;-75
2023/09/08 09:59:12;;;;;;;3.10;2.80;;;28.60;97.20;;;;;;5059229;28;20035;-75
2023/09/08 10:01:40;;;;;;;4.80;3.58;;;28.70;97.20;;;;;;5053152;28;20036;-75
2023/09/08 10:04:07;;;;;;;4.57;4.03;;;28.90;97.10;;;;;;5061113;28;20385;-73
2023/09/08 10:06:35;;;;;;;5.10;3.60;;;29.00;96.90;;;;;;5065445;28;20485;-75
2023/09/08 10:09:04;;;;;;;4.88;4.25;;;29.10;96.80;;;;;;5073584;28;20413;-72
2023/09/08 10:11:49;;;;;;;4.85;4.45;;;29.30;96.80;;;;;;5100225;28;20043;-73
2023/09/08 10:14:18;;;;;;;4.63;4.13;;;29.60;96.70;;;;;;5092515;28;20487;-73
2023/09/08 10:16:49;;;;;;;7.60;6.88;;;29.70;96.40;;;;;;5092728;28;20043;-73
2023/09/08 10:19:16;;;;;;;5.05;4.55;;;30.00;95.90;;;;;;5065645;28;20035;-72
2023/09/08 10:21:46;;;;;;;7.75;5.15;;;30.20;95.80;;;;;;5106143;28;20194;-72
2023/09/08 10:24:23;;;;;;;21.48;19.60;;;30.50;95.40;;;;;;5092129;28;20390;-72
2023/09/08 10:27:02;;;;;;;10.68;9.63;;;30.80;95.00;;;;;;5099639;28;20054;-73
2023/09/08 10:29:30;;;;;;;6.35;5.72;;;31.30;94.70;;;;;;5093000;28;20042;-72
2023/09/08 10:31:57;;;;;;;9.05;5.78;;;31.60;94.60;;;;;;5074693;28;20036;-73
2023/09/08 10:34:25;;;;;;;8.32;7.15;;;32.00;94.30;;;;;;5074134;28;20035;-72
2023/09/08 10:36:52;;;;;;;10.43;8.55;;;32.40;93.90;;;;;;5058506;28;20039;-73
2023/09/08 10:39:37;;;;;;;21.02;18.88;;;32.80;93.40;;;;;;5096376;28;20027;-74
2023/09/08 10:42:16;;;;;;;13.80;12.30;;;33.20;92.70;;;;;;5092809;28;20682;-72
2023/09/08 10:44:49;;;;;;;23.45;21.10;;;33.60;92.10;;;;;;5071695;28;20406;-74
2023/09/08 10:47:22;;;;;;;9.48;8.48;;;33.80;91.40;;;;;;5089278;28;20047;-72
2023/09/08 10:49:50;;;;;;;9.35;8.45;;;34.10;91.00;;;;;;5103155;28;20374;-75
2023/09/08 10:52:20;;;;;;;5.63;4.55;;;34.30;90.40;;;;;;5090598;28;20032;-72
2023/09/08 10:54:51;;;;;;;5.47;4.97;;;34.60;89.90;;;;;;5071704;28;20027;-74
2023/09/08 10:57:23;;;;;;;8.02;5.90;;;34.90;88.40;;;;;;5088877;28;20027;-72
2023/09/08 11:00:11;;;;;;;6.43;4.75;;;35.30;87.00;;;;;;5070651;28;20030;-73
2023/09/08 11:02:39;;;;;;;5.93;5.35;;;35.60;85.70;;;;;;5065606;28;20390;-73
2023/09/08 11:05:14;;;;;;;6.53;4.72;;;35.90;84.70;;;;;;5074484;28;20036;-73
2023/09/08 11:07:42;;;;;;;6.65;4.63;;;36.30;83.50;;;;;;5075320;28;20039;-72
2023/09/08 11:10:09;;;;;;;7.85;5.18;;;36.60;82.40;;;;;;5057959;28;20036;-73
2023/09/08 11:12:36;;;;;;;8.07;7.28;;;36.80;81.40;;;;;;5090721;28;20039;-72
2023/09/08 11:15:07;;;;;;;6.90;6.15;;;37.20;80.60;;;;;;5071739;28;20402;-74
2023/09/08 11:17:34;;;;;;;5.45;4.95;;;37.40;79.30;;;;;;5072901;28;20031;-72
2023/09/08 11:20:10;;;;;;;4.70;4.20;;;37.70;78.10;;;;;;5107147;28;20023;-75
2023/09/08 11:22:39;;;;;;;6.25;3.72;;;37.90;77.40;;;;;;5087373;28;20036;-73
2023/09/08 11:25:10;;;;;;;3.60;3.25;;;38.10;76.30;;;;;;5070785;28;20043;-73
2023/09/08 11:27:39;;;;;;;4.28;3.88;;;38.40;75.70;;;;;;5104528;28;20046;-75
2023/09/08 11:30:08;;;;;;;4.43;4.00;;;38.60;74.40;;;;;;5111507;27;20031;-74
2023/09/08 11:32:35;;;;;;;5.30;3.00;;;38.80;73.20;;;;;;5069607;28;20513;-74
2023/09/08 11:35:07;;;;;;;6.47;3.72;;;38.90;73.60;;;;;;5071241;28;20373;-74
2023/09/08 11:37:39;;;;;;;4.80;3.00;;;39.10;73.20;;;;;;5084138;28;20503;-74
2023/09/08 11:40:13;;;;;;;4.72;3.22;;;39.30;73.00;;;;;;5060909;28;20233;-74
2023/09/08 11:42:43;;;;;;;6.72;3.13;;;39.40;70.60;;;;;;5060378;28;20482;-74
2023/09/08 11:45:14;;;;;;;4.00;2.70;;;39.60;70.40;;;;;;5065776;28;20036;-74
2023/09/08 11:47:42;;;;;;;6.32;2.40;;;39.80;69.60;;;;;;5068339;28;20040;-74
2023/09/08 11:50:15;;;;;;;2.75;2.53;;;39.90;68.80;;;;;;5076534;28;20028;-74
2023/09/08 11:52:48;;;;;;;3.78;2.80;;;40.20;68.00;;;;;;5080438;28;20498;-74
2023/09/08 11:55:15;;;;;;;3.88;2.50;;;40.50;67.30;;;;;;5078730;28;20024;-74
2023/09/08 11:57:43;;;;;;;3.35;2.75;;;40.80;66.60;;;;;;5094478;28;20028;-75
2023/09/08 12:00:14;;;;;;;9.98;7.97;;;40.90;65.20;;;;;;5106354;28;20118;-71
2023/09/08 12:02:40;;;;;;;6.65;6.00;;;41.00;64.80;;;;;;5091481;28;20046;-72
2023/09/08 12:05:22;;;;;;;4.88;3.90;;;41.10;64.60;;;;;;5072538;28;20456;-72
2023/09/08 12:07:55;;;;;;;4.30;3.17;;;41.40;64.50;;;;;;5074704;28;20042;-71
2023/09/08 12:10:21;;;;;;;7.57;3.17;;;41.60;63.60;;;;;;5090963;28;20474;-73
2023/09/08 12:13:00;;;;;;;5.15;2.75;;;41.90;62.70;;;;;;5091473;28;20043;-72
2023/09/08 12:15:34;;;;;;;2.45;2.10;;;42.10;62.20;;;;;;5097902;28;20031;-72
2023/09/08 12:18:08;;;;;;;4.90;2.88;;;42.30;62.30;;;;;;5091130;28;20027;-72
2023/09/08 12:20:36;;;;;;;3.17;2.08;;;42.70;61.50;;;;;;5074630;28;20043;-72
2023/09/08 12:23:04;;;;;;;5.22;2.30;;;42.80;60.60;;;;;;5085175;28;20058;-72
2023/09/08 12:25:31;;;;;;;4.10;2.55;;;43.00;60.00;;;;;;5089797;28;20039;-73
2023/09/08 12:27:58;;;;;;;2.88;2.55;;;43.10;59.40;;;;;;5074227;28;20027;-72
2023/09/08 12:30:32;;;;;;;5.05;2.88;;;43.20;58.80;;;;;;5074432;28;20050;-72
2023/09/08 12:33:01;;;;;;;3.00;2.28;;;43.40;58.70;;;;;;5057360;28;20043;-73
2023/09/08 12:35:28;;;;;;;3.78;2.58;;;43.50;58.40;;;;;;5069992;28;20043;-73
2023/09/08 12:38:05;;;;;;;3.55;2.15;;;43.80;58.00;;;;;;5083032;28;20036;-70
2023/09/08 12:40:35;;;;;;;3.92;2.75;;;44.00;57.50;;;;;;5090764;28;20089;-71
2023/09/08 12:43:02;;;;;;;;;;;44.10;57.30;;;;;;5057706;28;20072;-70
2023/09/08 12:45:29;;;;;;;3.53;2.20;;;44.20;57.00;;;;;;5072283;28;19908;-71
2023/09/08 12:47:59;;;;;;;4.55;2.20;;;44.40;56.40;;;;;;5089297;28;20038;-70
2023/09/08 12:50:26;;;;;;;2.22;1.80;;;44.60;55.50;;;;;;5095128;28;20390;-71
2023/09/08 12:52:53;;;;;;;5.13;2.55;;;44.70;55.10;;;;;;5077991;28;20039;-73